Airfield :
LOGIN :

Register | Disclaimer

   EN    FR    IT 

 










Legend :    VFR   Marginal VFR   IFR   Intensive IFR   Very Intensive IFR
Visi :
Ceiling :
>= 8 km
>= 3000ft
5 to 8 km
1000 to 3000 ft
1500m to 5 km
500 to 1000 ft
800 to 1500m
200 to 500 ft
< 800m
< 200 ft
Symbols :   Thunderstorms  Fog  Heavy snow  Heavy precipitations  Wind > 20 kt
SIGMETs :     Misc.  Thunderstorms  Icing  Turbulence  Mountain Waves  Volcanic Ashes






- Airport Elevation : 1363 ft


ETIC - Grafenwohr Army Air Field

CURRENT METAR :
  • 220708Z AUTO 10004KT 8000 BR OVC003 02/02 A2981 RMK AO2 SLPNO $

EXPIRED METARs :
  • 220656Z AUTO 11003KT 6000 BR M 02/02 A2981 RMK AO2 SLPNO T00240024 $
  • 220556Z AUTO 09004KT 9000 BR OVC003 02/02 A2980 RMK AO2 SLPNO T00200020 10033 20020 50005 $
  • 220541Z AUTO 09003KT 9000 BR OVC003 02/02 A2980 RMK AO2 SLPNO $
  • 220456Z AUTO 07004KT 4400 BR OVC003 02/02 A2981 RMK AO2 SLPNO T00220022 $

TAF AMD TAF ETIC
Valid from the 22 at 06:00 until the 23 at 12:00 UTC


220630Z 2206/2312 18006KT 5000 BR OVC003 QNH2970INS
TEMPO 2206/2209 3200 BR OVC008
BECMG 2208/2209 12004KT 9999 NSW BKN015 QNH2980INS
TEMPO 2209/2211 BKN010
BECMG 2215/2216 09009KT 9999 SCT020 QNH2966INS TX04/2214Z TN02/2304Z



MET'MAP, your aeronautical weather chart ! - Copyright ORBIFLY December 2007 - Disclaimer

ORBIFLY MET'MAP TEAM :

Programming & Development : Alexandra Zaïnal
Concept & Development : Baudouin d'Aumeries
Co-Development & Prog : Marc-Olivier Méhu
Technical & hardware support : Manuel Goepfert

Contact : metmap@orbifly.com




SOURCES & CREDITS :

   NOAA